createdAt,value
2023-04-24T00:00:57.704Z,5.43
2023-04-24T00:03:24.909Z,6.67
2023-04-24T00:05:52.024Z,5.93
2023-04-24T00:08:18.454Z,6.00
2023-04-24T00:10:44.794Z,7.30
2023-04-24T00:13:11.034Z,6.20
2023-04-24T00:15:37.363Z,7.47
2023-04-24T00:18:03.899Z,7.17
2023-04-24T00:20:39.329Z,6.83
2023-04-24T00:23:05.905Z,8.10
2023-04-24T00:25:32.289Z,6.20
2023-04-24T00:27:58.594Z,5.97
2023-04-24T00:30:24.884Z,6.00
2023-04-24T00:32:51.203Z,7.07
2023-04-24T00:35:17.589Z,6.67
2023-04-24T00:37:43.898Z,8.10
2023-04-24T00:40:10.717Z,7.43
2023-04-24T00:42:37.084Z,6.37
2023-04-24T00:45:04.191Z,8.50
2023-04-24T00:47:31.090Z,5.37
2023-04-24T00:49:57.443Z,6.53
2023-04-24T00:52:25.219Z,7.00
2023-04-24T00:54:51.550Z,5.80
2023-04-24T00:57:18.543Z,6.37
2023-04-24T00:59:45.294Z,6.80
2023-04-24T01:02:12.109Z,6.00
2023-04-24T01:04:38.946Z,5.87
2023-04-24T01:07:10.826Z,7.10
2023-04-24T01:09:42.452Z,6.10
2023-04-24T01:12:09.002Z,6.63
2023-04-24T01:14:35.430Z,5.77
2023-04-24T01:17:02.421Z,6.97
2023-04-24T01:19:28.900Z,5.90
2023-04-24T01:21:57.962Z,5.83
2023-04-24T01:24:24.278Z,5.93
2023-04-24T01:26:50.803Z,6.80
2023-04-24T01:29:17.142Z,5.87
2023-04-24T01:31:43.746Z,7.13
2023-04-24T01:34:10.450Z,5.90
2023-04-24T01:36:37.193Z,6.20
2023-04-24T01:39:04.508Z,6.00
2023-04-24T01:41:31.047Z,6.90
2023-04-24T01:43:58.018Z,6.43
2023-04-24T01:46:24.864Z,6.80
2023-04-24T01:48:51.958Z,6.53
2023-04-24T01:51:18.264Z,6.90
2023-04-24T01:53:44.518Z,7.37
2023-04-24T01:56:10.921Z,7.00
2023-04-24T01:58:37.298Z,7.17
2023-04-24T02:01:03.618Z,7.53
2023-04-24T02:03:30.277Z,9.43
2023-04-24T02:05:56.649Z,8.13
2023-04-24T02:08:22.961Z,7.17
2023-04-24T02:10:49.233Z,8.60
2023-04-24T02:13:15.612Z,7.33
2023-04-24T02:15:41.917Z,8.53
2023-04-24T02:18:08.337Z,6.83
2023-04-24T02:20:37.897Z,8.43
2023-04-24T02:23:04.188Z,7.27
2023-04-24T02:25:30.450Z,7.33
2023-04-24T02:27:56.801Z,8.10
2023-04-24T02:33:04.105Z,7.53
2023-04-24T02:35:30.827Z,6.33
2023-04-24T02:37:57.156Z,7.23
2023-04-24T02:40:23.421Z,6.60
2023-04-24T02:42:49.677Z,7.27
2023-04-24T02:45:15.945Z,7.23
2023-04-24T02:47:42.317Z,6.60
2023-04-24T02:50:08.738Z,6.20
2023-04-24T02:52:35.042Z,7.00
2023-04-24T02:55:01.306Z,7.03
2023-04-24T02:57:27.617Z,6.60
2023-04-24T02:59:54.008Z,6.83
2023-04-24T03:02:21.662Z,6.60
2023-04-24T03:04:49.259Z,7.80
2023-04-24T03:07:16.221Z,6.40
2023-04-24T03:09:42.843Z,8.30
2023-04-24T03:12:09.347Z,6.10
2023-04-24T03:14:35.724Z,7.67
2023-04-24T03:17:02.565Z,6.33
2023-04-24T03:19:28.833Z,7.57
2023-04-24T03:21:55.321Z,6.67
2023-04-24T03:24:21.893Z,7.87
2023-04-24T03:26:48.129Z,7.03
2023-04-24T03:29:14.440Z,8.33
2023-04-24T03:31:40.817Z,6.77
2023-04-24T03:34:07.105Z,7.23
2023-04-24T03:36:33.518Z,6.07
2023-04-24T03:38:59.795Z,7.37
2023-04-24T03:41:26.130Z,9.20
2023-04-24T03:43:52.409Z,6.43
2023-04-24T03:46:18.699Z,7.83
2023-04-24T03:48:45.018Z,6.60
2023-04-24T03:51:11.294Z,6.37
2023-04-24T03:53:37.662Z,6.87
2023-04-24T03:56:04.021Z,7.27
2023-04-24T03:58:30.433Z,7.60
2023-04-24T04:00:58.988Z,6.80
2023-04-24T04:03:26.464Z,6.97
2023-04-24T04:05:52.987Z,7.67
2023-04-24T04:08:19.294Z,6.87
2023-04-24T04:10:45.566Z,8.13
2023-04-24T04:13:11.803Z,7.10
2023-04-24T04:15:38.091Z,5.90
2023-04-24T04:18:04.414Z,8.90
2023-04-24T04:20:30.730Z,6.70
2023-04-24T04:22:56.978Z,8.07
2023-04-24T04:25:24.027Z,8.00
2023-04-24T04:27:52.018Z,7.63
2023-04-24T04:30:19.099Z,6.57
2023-04-24T04:32:45.461Z,6.77
2023-04-24T04:35:12.026Z,6.37
2023-04-24T04:37:39.180Z,6.40
2023-04-24T04:40:11.828Z,6.60
2023-04-24T04:42:41.283Z,6.53
2023-04-24T04:45:09.770Z,7.37
2023-04-24T04:47:36.071Z,5.27
2023-04-24T04:50:02.387Z,5.17
2023-04-24T04:52:28.740Z,7.07
2023-04-24T04:54:55.042Z,5.47
2023-04-24T04:57:21.514Z,5.60
2023-04-24T04:59:47.967Z,5.20
2023-04-24T05:02:14.437Z,4.93
2023-04-24T05:04:41.056Z,7.07
2023-04-24T05:07:07.445Z,4.37
2023-04-24T05:09:33.777Z,7.97
2023-04-24T05:12:00.053Z,4.10
2023-04-24T05:14:26.311Z,5.80
2023-04-24T05:16:52.674Z,4.60
2023-04-24T05:19:19.029Z,3.73
2023-04-24T05:21:45.385Z,5.43
2023-04-24T05:24:11.751Z,3.83
2023-04-24T05:26:38.054Z,5.03
2023-04-24T05:29:04.444Z,9.77
2023-04-24T05:31:30.720Z,4.27
2023-04-24T05:33:57.021Z,3.70
2023-04-24T05:36:23.308Z,5.67
2023-04-24T05:38:49.788Z,5.70
2023-04-24T05:41:16.495Z,6.27
2023-04-24T05:43:42.799Z,3.73
2023-04-24T05:46:09.099Z,3.77
2023-04-24T05:48:35.556Z,3.80
2023-04-24T05:51:01.797Z,4.03
2023-04-24T05:53:28.148Z,3.63
2023-04-24T05:55:55.263Z,4.90
2023-04-24T05:58:21.600Z,3.13
2023-04-24T06:00:48.032Z,2.50
2023-04-24T06:03:14.628Z,2.27
2023-04-24T06:05:41.171Z,3.60
2023-04-24T06:08:07.775Z,2.43
2023-04-24T06:10:34.073Z,3.63
2023-04-24T06:13:03.233Z,3.27
2023-04-24T06:15:31.380Z,3.50
2023-04-24T06:17:58.002Z,2.97
2023-04-24T06:20:24.541Z,3.13
2023-04-24T06:22:50.932Z,2.13
2023-04-24T06:25:17.417Z,2.37
2023-04-24T06:27:43.771Z,3.97
2023-04-24T06:30:10.342Z,3.43
2023-04-24T06:32:36.720Z,1.90
2023-04-24T06:35:03.169Z,2.83
2023-04-24T06:37:30.119Z,2.83
2023-04-24T06:39:56.571Z,1.65
2023-04-24T06:42:23.049Z,4.40
2023-04-24T06:44:49.331Z,2.25
2023-04-24T06:47:16.297Z,4.38
2023-04-24T06:49:42.913Z,1.92
2023-04-24T06:52:09.476Z,1.13
2023-04-24T06:54:35.985Z,1.00
2023-04-24T06:57:03.564Z,2.47
2023-04-24T06:59:30.557Z,1.48
2023-04-24T07:01:57.761Z,1.00
2023-04-24T07:04:26.260Z,2.33
2023-04-24T07:06:55.295Z,3.97
2023-04-24T07:09:21.646Z,1.60
2023-04-24T07:11:49.044Z,1.83
2023-04-24T07:14:15.416Z,1.98
2023-04-24T07:16:41.717Z,1.33
2023-04-24T07:19:08.133Z,2.67
2023-04-24T07:21:34.538Z,0.85
2023-04-24T07:24:01.271Z,2.50
2023-04-24T07:26:30.009Z,2.08
2023-04-24T07:28:56.397Z,1.10
2023-04-24T07:31:23.013Z,1.73
2023-04-24T07:33:49.505Z,1.48
2023-04-24T07:36:19.756Z,1.25
2023-04-24T07:38:46.757Z,2.30
2023-04-24T07:41:13.746Z,0.68
2023-04-24T07:43:40.135Z,2.42
2023-04-24T07:46:08.431Z,2.40
2023-04-24T07:48:35.334Z,4.20
2023-04-24T07:51:01.957Z,2.67
2023-04-24T07:53:28.685Z,1.50
2023-04-24T07:55:55.997Z,4.47
2023-04-24T07:58:22.387Z,0.88
2023-04-24T08:00:48.829Z,2.15
2023-04-24T08:03:15.214Z,1.30
2023-04-24T08:05:41.985Z,0.70
2023-04-24T08:11:24.917Z,0.60
2023-04-24T08:13:51.486Z,0.98
2023-04-24T08:16:17.807Z,1.00
2023-04-24T08:18:44.088Z,1.95
2023-04-24T08:21:10.415Z,3.10
2023-04-24T08:23:36.744Z,1.02
2023-04-24T08:26:04.023Z,1.73
2023-04-24T08:28:30.656Z,1.57
2023-04-24T08:30:56.975Z,2.20
2023-04-24T08:33:23.750Z,0.63
2023-04-24T08:35:50.211Z,3.03
2023-04-24T08:38:16.823Z,2.83
2023-04-24T08:40:43.550Z,1.30
2023-04-24T08:43:11.114Z,2.87
2023-04-24T08:45:37.670Z,1.63
2023-04-24T08:48:06.800Z,3.27
2023-04-24T08:50:35.925Z,0.80
2023-04-24T08:53:05.060Z,0.80
2023-04-24T08:55:31.809Z,2.23
2023-04-24T08:57:58.524Z,3.23
2023-04-24T09:00:25.270Z,1.33
2023-04-24T09:02:51.797Z,1.80
2023-04-24T09:05:19.884Z,0.77
2023-04-24T09:07:48.706Z,0.90
2023-04-24T09:10:15.277Z,2.17
2023-04-24T09:12:42.255Z,1.43
2023-04-24T09:15:09.078Z,4.00
2023-04-24T09:17:36.469Z,1.20
2023-04-24T09:20:03.321Z,3.20
2023-04-24T09:22:32.429Z,3.17
2023-04-24T09:25:06.580Z,2.43
2023-04-24T09:27:33.531Z,3.37
2023-04-24T09:30:00.959Z,2.97
2023-04-24T09:32:27.444Z,4.23
2023-04-24T09:35:13.449Z,1.60
2023-04-24T09:37:42.307Z,1.57
2023-04-24T09:40:18.678Z,1.70
2023-04-24T09:43:03.895Z,2.30
2023-04-24T09:45:36.835Z,2.20
2023-04-24T09:48:03.263Z,1.73
2023-04-24T09:50:32.644Z,1.77
2023-04-24T09:52:59.855Z,2.00
2023-04-24T09:55:26.467Z,3.17
2023-04-24T09:57:53.967Z,1.17
2023-04-24T10:00:30.525Z,2.43
2023-04-24T10:02:57.918Z,1.27
2023-04-24T10:05:25.529Z,2.80
2023-04-24T10:07:52.165Z,3.23
2023-04-24T10:10:18.703Z,3.37
2023-04-24T10:12:45.287Z,2.57
2023-04-24T10:15:13.340Z,2.93
2023-04-24T10:17:40.041Z,2.40
2023-04-24T10:20:07.516Z,1.27
2023-04-24T10:22:33.834Z,1.47
2023-04-24T10:25:00.260Z,2.33
2023-04-24T10:27:27.766Z,3.47
2023-04-24T10:29:54.221Z,2.30
2023-04-24T10:32:20.573Z,1.87
2023-04-24T10:34:46.858Z,1.70
2023-04-24T10:37:14.699Z,5.50
2023-04-24T10:39:41.822Z,3.80
2023-04-24T10:42:17.368Z,4.00
2023-04-24T10:44:43.742Z,2.83
2023-04-24T10:47:13.855Z,0.93
2023-04-24T10:49:40.240Z,1.57
2023-04-24T10:52:06.912Z,1.77
2023-04-24T10:54:37.272Z,4.33
2023-04-24T10:57:22.911Z,1.37
2023-04-24T10:59:50.480Z,0.97
2023-04-24T11:02:17.153Z,1.90
2023-04-24T11:04:44.138Z,1.13
2023-04-24T11:07:11.532Z,2.17
2023-04-24T11:09:39.020Z,2.23
2023-04-24T11:12:07.923Z,1.83
2023-04-24T11:14:53.226Z,1.37
2023-04-24T11:17:32.989Z,2.87
2023-04-24T11:20:25.928Z,2.13
2023-04-24T11:22:53.960Z,0.73
2023-04-24T11:25:20.271Z,1.57
2023-04-24T11:27:47.396Z,2.00
2023-04-24T11:30:17.955Z,3.00
2023-04-24T11:32:44.294Z,2.90
2023-04-24T11:35:17.705Z,3.27
2023-04-24T11:37:47.620Z,2.10
2023-04-24T11:40:21.322Z,2.00
2023-04-24T11:42:48.254Z,3.57
2023-04-24T11:45:24.288Z,1.83
2023-04-24T11:47:51.074Z,1.37
2023-04-24T11:50:18.406Z,1.40
2023-04-24T11:52:45.611Z,3.60
2023-04-24T11:55:15.011Z,3.40
2023-04-24T11:57:45.652Z,1.40
2023-04-24T12:00:19.919Z,2.33
2023-04-24T12:02:46.656Z,0.73
2023-04-24T12:05:28.924Z,4.53
2023-04-24T12:07:55.527Z,1.77
2023-04-24T12:10:23.498Z,4.40
2023-04-24T12:12:52.202Z,3.67
2023-04-24T12:15:19.533Z,3.23
2023-04-24T12:17:46.094Z,3.03
2023-04-24T12:20:12.828Z,1.43
2023-04-24T12:22:49.356Z,2.07
2023-04-24T12:25:16.822Z,3.43
2023-04-24T12:27:43.273Z,1.00
2023-04-24T12:30:14.037Z,2.30
2023-04-24T12:32:47.422Z,2.23
2023-04-24T12:35:13.920Z,1.00
2023-04-24T12:37:46.435Z,2.20
2023-04-24T12:40:13.930Z,6.30
2023-04-24T12:42:44.733Z,2.07
2023-04-24T12:45:13.093Z,2.63
2023-04-24T12:47:40.498Z,1.83
2023-04-24T12:50:13.925Z,3.93
2023-04-24T12:52:40.663Z,2.10
2023-04-24T12:55:10.448Z,1.37
2023-04-24T12:57:37.927Z,1.80
2023-04-24T13:00:04.581Z,2.23
2023-04-24T13:02:32.153Z,2.43
2023-04-24T13:04:59.286Z,1.90
2023-04-24T13:07:25.979Z,2.50
2023-04-24T13:09:52.592Z,1.30
2023-04-24T13:12:19.295Z,0.83
2023-04-24T13:14:46.666Z,1.80
2023-04-24T13:17:13.969Z,1.00
2023-04-24T13:19:42.248Z,0.90
2023-04-24T13:22:09.890Z,3.47
2023-04-24T13:24:37.967Z,1.30
2023-04-24T13:27:05.640Z,1.03
2023-04-24T13:29:32.089Z,0.63
2023-04-24T13:31:58.549Z,2.47
2023-04-24T13:34:25.507Z,1.83
2023-04-24T13:36:55.004Z,2.10
2023-04-24T13:39:21.732Z,1.37
2023-04-24T13:41:49.148Z,1.27
2023-04-24T13:44:16.348Z,2.43
2023-04-24T13:46:44.582Z,2.77
2023-04-24T13:49:11.056Z,1.60
2023-04-24T13:51:37.395Z,1.10
2023-04-24T13:54:03.763Z,0.97
2023-04-24T13:56:30.066Z,1.40
2023-04-24T13:58:56.776Z,2.03
2023-04-24T14:01:25.816Z,1.00
2023-04-24T14:03:56.460Z,2.50
2023-04-24T14:06:24.029Z,1.57
2023-04-24T14:08:51.317Z,3.27
2023-04-24T14:11:18.055Z,2.37
2023-04-24T14:13:45.015Z,2.77
2023-04-24T14:16:11.898Z,4.90
2023-04-24T14:18:38.412Z,0.83
2023-04-24T14:21:05.479Z,1.63
2023-04-24T14:23:31.964Z,1.90
2023-04-24T14:25:58.552Z,2.00
2023-04-24T14:28:25.394Z,2.10
2023-04-24T14:30:51.766Z,2.37
2023-04-24T14:33:18.029Z,2.17
2023-04-24T14:35:44.656Z,1.07
2023-04-24T14:38:11.576Z,1.63
2023-04-24T14:41:04.853Z,1.73
2023-04-24T14:43:24.574Z,1.00
2023-04-24T14:45:50.896Z,0.83
2023-04-24T14:48:18.691Z,2.00
2023-04-24T14:50:45.094Z,2.20
2023-04-24T14:53:11.587Z,1.57
2023-04-24T14:55:38.007Z,2.40
2023-04-24T14:58:04.723Z,4.13
2023-04-24T15:00:31.538Z,1.10
2023-04-24T15:02:58.082Z,3.17
2023-04-24T15:05:26.178Z,1.93
2023-04-24T15:07:52.948Z,1.40
2023-04-24T15:10:19.276Z,2.13
2023-04-24T15:12:45.710Z,2.50
2023-04-24T15:15:12.093Z,4.30
2023-04-24T15:17:38.926Z,2.77
2023-04-24T15:20:07.366Z,1.47
2023-04-24T15:22:33.815Z,2.80
2023-04-24T15:25:00.195Z,1.73
2023-04-24T15:27:26.619Z,2.20
2023-04-24T15:29:54.548Z,1.80
2023-04-24T15:32:20.872Z,3.63
2023-04-24T15:34:49.373Z,1.50
2023-04-24T15:37:18.369Z,4.17
2023-04-24T15:39:45.424Z,4.33
2023-04-24T15:42:11.677Z,4.73
2023-04-24T15:44:38.239Z,1.77
2023-04-24T15:47:04.564Z,1.47
2023-04-24T15:49:32.330Z,1.52
2023-04-24T15:51:58.621Z,3.13
2023-04-24T15:54:24.862Z,3.30
2023-04-24T15:56:51.581Z,1.50
2023-04-24T15:59:18.333Z,2.33
2023-04-24T16:01:44.680Z,2.33
2023-04-24T16:04:11.139Z,1.60
2023-04-24T16:06:37.660Z,2.57
2023-04-24T16:09:03.984Z,6.07
2023-04-24T16:11:32.734Z,1.43
2023-04-24T16:13:59.127Z,6.17
2023-04-24T16:16:25.456Z,4.10
2023-04-24T16:18:53.967Z,2.20
2023-04-24T16:21:20.974Z,1.50
2023-04-24T16:23:47.226Z,4.63
2023-04-24T16:26:13.767Z,6.53
2023-04-24T16:28:40.109Z,1.67
2023-04-24T16:31:06.579Z,3.27
2023-04-24T16:33:33.478Z,1.53
2023-04-24T16:35:59.819Z,1.60
2023-04-24T16:38:26.612Z,1.63
2023-04-24T16:40:52.938Z,1.93
2023-04-24T16:43:19.245Z,3.43
2023-04-24T16:45:45.817Z,3.77
2023-04-24T16:48:12.164Z,2.20
2023-04-24T16:50:38.579Z,2.70
2023-04-24T16:53:05.444Z,1.30
2023-04-24T16:55:31.698Z,1.03
2023-04-24T16:57:57.988Z,1.20
2023-04-24T17:00:24.360Z,0.90
2023-04-24T17:02:51.131Z,1.87
2023-04-24T17:05:19.371Z,0.90
2023-04-24T17:07:45.766Z,1.07
2023-04-24T17:10:12.122Z,2.33
2023-04-24T17:12:38.374Z,4.30
2023-04-24T17:15:04.997Z,2.13
2023-04-24T17:17:31.616Z,1.37
2023-04-24T17:19:59.771Z,1.77
2023-04-24T17:22:26.688Z,1.90
2023-04-24T17:24:53.021Z,2.70
2023-04-24T17:27:19.457Z,1.57
2023-04-24T17:29:45.852Z,1.27
2023-04-24T17:32:12.207Z,4.37
2023-04-24T17:34:38.540Z,3.10
2023-04-24T17:37:04.829Z,2.03
2023-04-24T17:39:31.374Z,1.47
2023-04-24T17:41:58.254Z,1.20
2023-04-24T17:44:25.252Z,1.23
2023-04-24T17:46:51.629Z,2.73
2023-04-24T17:49:18.030Z,3.03
2023-04-24T17:51:44.361Z,3.07
2023-04-24T17:54:10.768Z,3.27
2023-04-24T17:56:37.269Z,2.37
2023-04-24T17:59:03.699Z,1.77
2023-04-24T18:01:30.101Z,1.37
2023-04-24T18:03:56.804Z,2.13
2023-04-24T18:06:23.274Z,4.27
2023-04-24T18:08:49.930Z,1.87
2023-04-24T18:11:16.454Z,1.83
2023-04-24T18:13:42.801Z,1.33
2023-04-24T18:16:09.331Z,1.70
2023-04-24T18:18:36.511Z,4.53
2023-04-24T18:21:02.952Z,3.93
2023-04-24T18:23:29.498Z,8.23
2023-04-24T18:25:55.816Z,1.10
2023-04-24T18:28:22.263Z,2.30
2023-04-24T18:30:48.595Z,2.10
2023-04-24T18:33:15.046Z,3.33
2023-04-24T18:35:41.405Z,0.90
2023-04-24T18:38:07.760Z,2.50
2023-04-24T18:40:34.058Z,2.00
2023-04-24T18:43:00.504Z,5.20
2023-04-24T18:45:26.892Z,0.87
2023-04-24T18:47:53.275Z,1.93
2023-04-24T18:50:19.698Z,3.63
2023-04-24T18:52:45.991Z,0.50
2023-04-24T18:55:12.339Z,0.40
2023-04-24T18:57:38.726Z,1.63
2023-04-24T19:00:05.555Z,0.50
2023-04-24T19:02:32.756Z,3.13
2023-04-24T19:04:59.158Z,1.50
2023-04-24T19:07:25.439Z,1.23
2023-04-24T19:09:51.735Z,2.27
2023-04-24T19:12:18.164Z,2.10
2023-04-24T19:14:46.115Z,0.90
2023-04-24T19:17:12.704Z,2.43
2023-04-24T19:19:38.980Z,1.57
2023-04-24T19:22:05.411Z,0.80
2023-04-24T19:24:33.605Z,1.20
2023-04-24T19:27:00.171Z,1.20
2023-04-24T19:29:26.521Z,2.17
2023-04-24T19:31:54.506Z,1.53
2023-04-24T19:34:21.068Z,1.23
2023-04-24T19:36:47.454Z,1.70
2023-04-24T19:39:13.713Z,2.07
2023-04-24T19:41:39.987Z,2.40
2023-04-24T19:44:06.399Z,2.03
2023-04-24T19:46:32.855Z,3.17
2023-04-24T19:48:59.178Z,3.13
2023-04-24T19:51:25.854Z,2.40
2023-04-24T19:53:52.559Z,2.60
2023-04-24T19:56:18.871Z,2.77
2023-04-24T19:58:45.314Z,5.60
2023-04-24T20:01:11.667Z,3.47
2023-04-24T20:03:38.281Z,2.83
2023-04-24T20:06:04.639Z,3.97
2023-04-24T20:08:31.039Z,2.50
2023-04-24T20:10:58.216Z,3.67
2023-04-24T20:13:25.197Z,2.43
2023-04-24T20:15:51.497Z,5.93
2023-04-24T20:18:18.131Z,3.80
2023-04-24T20:20:44.392Z,3.53
2023-04-24T20:23:11.379Z,5.57
2023-04-24T20:25:37.712Z,2.33
2023-04-24T20:28:04.125Z,4.73
2023-04-24T20:30:31.522Z,2.90
2023-04-24T20:32:58.461Z,2.20
2023-04-24T20:35:24.775Z,3.80
2023-04-24T20:37:51.066Z,3.43
2023-04-24T20:40:19.412Z,3.03
2023-04-24T20:42:46.358Z,4.70
2023-04-24T20:45:12.671Z,3.77
2023-04-24T20:47:39.010Z,4.67
2023-04-24T20:50:06.333Z,3.40
2023-04-24T20:52:32.920Z,3.30
2023-04-24T20:54:59.313Z,3.53
2023-04-24T20:57:25.691Z,3.57
2023-04-24T20:59:52.008Z,3.27
2023-04-24T21:02:18.774Z,2.97
2023-04-24T21:04:45.851Z,2.37
2023-04-24T21:07:13.520Z,3.13
2023-04-24T21:09:39.835Z,3.67
2023-04-24T21:12:06.240Z,4.20
2023-04-24T21:14:32.537Z,6.73
2023-04-24T21:17:00.389Z,3.30
2023-04-24T21:19:26.799Z,3.27
2023-04-24T21:21:53.072Z,5.40
2023-04-24T21:24:19.314Z,3.87
2023-04-24T21:26:46.677Z,5.77
2023-04-24T21:29:13.185Z,5.83
2023-04-24T21:31:39.571Z,4.53
2023-04-24T21:34:05.968Z,3.40
2023-04-24T21:36:32.811Z,3.30
2023-04-24T21:38:59.230Z,3.47
2023-04-24T21:41:25.499Z,3.73
2023-04-24T21:43:52.048Z,5.83
2023-04-24T21:46:18.729Z,5.97
2023-04-24T21:48:45.033Z,5.93
2023-04-24T21:51:11.362Z,11.50
2023-04-24T21:53:37.645Z,6.87
2023-04-24T21:56:03.995Z,4.80
2023-04-24T21:58:30.375Z,4.53
2023-04-24T22:00:56.635Z,4.30
2023-04-24T22:03:23.131Z,4.83
2023-04-24T22:05:49.521Z,6.07
2023-04-24T22:08:16.544Z,3.80
2023-04-24T22:10:42.860Z,4.90
2023-04-24T22:13:09.139Z,5.53
2023-04-24T22:15:35.597Z,6.73
2023-04-24T22:18:01.993Z,6.37
2023-04-24T22:20:29.565Z,5.17
2023-04-24T22:22:55.948Z,5.00
2023-04-24T22:25:22.214Z,5.57
2023-04-24T22:27:48.662Z,4.90
2023-04-24T22:30:15.094Z,6.77
2023-04-24T22:32:41.600Z,5.63
2023-04-24T22:35:08.161Z,5.47
2023-04-24T22:37:34.959Z,4.93
2023-04-24T22:40:01.479Z,5.83
2023-04-24T22:42:28.824Z,3.80
2023-04-24T22:44:55.067Z,4.57
2023-04-24T22:47:21.448Z,5.57
2023-04-24T22:49:47.749Z,4.63
2023-04-24T22:52:14.690Z,4.37
2023-04-24T22:54:41.281Z,6.77
2023-04-24T22:57:07.547Z,4.10
2023-04-24T22:59:33.849Z,7.90
2023-04-24T23:02:00.313Z,7.13
2023-04-24T23:04:26.722Z,7.70
2023-04-24T23:06:53.978Z,3.63
2023-04-24T23:09:20.286Z,5.97
2023-04-24T23:11:46.613Z,6.07
2023-04-24T23:14:13.180Z,6.03
2023-04-24T23:16:40.971Z,3.87
2023-04-24T23:19:07.291Z,4.03
2023-04-24T23:21:33.609Z,4.53
2023-04-24T23:24:00.007Z,3.87
2023-04-24T23:26:26.404Z,4.43
2023-04-24T23:28:52.799Z,4.00
2023-04-24T23:31:19.476Z,4.50
2023-04-24T23:33:46.393Z,5.10
2023-04-24T23:36:13.264Z,6.80
2023-04-24T23:38:49.046Z,3.53
2023-04-24T23:41:16.772Z,4.00
2023-04-24T23:43:43.033Z,3.30
2023-04-24T23:46:09.332Z,3.53
2023-04-24T23:48:36.986Z,3.97
2023-04-24T23:51:03.273Z,4.10
2023-04-24T23:53:30.242Z,5.73
2023-04-24T23:55:57.152Z,4.83
2023-04-24T23:58:23.478Z,4.03
